sensor_id;sensor_type;location;lat;lon;timestamp;temperature;humidity
23477;DHT22;11911;50.768;13.150;2022-10-22T04:04:44;12.50;96.30
23477;DHT22;11911;50.768;13.150;2022-10-22T04:07:09;12.50;96.30
23477;DHT22;11911;50.768;13.150;2022-10-22T04:09:35;12.60;96.30
23477;DHT22;11911;50.768;13.150;2022-10-22T04:12:01;12.70;96.30
23477;DHT22;11911;50.768;13.150;2022-10-22T04:14:27;12.70;96.30
23477;DHT22;11911;50.768;13.150;2022-10-22T04:16:52;12.70;96.30
23477;DHT22;11911;50.768;13.150;2022-10-22T04:19:18;12.70;96.30
23477;DHT22;11911;50.768;13.150;2022-10-22T07:20:39;12.60;96.30
23477;DHT22;11911;50.768;13.150;2022-10-22T07:27:56;12.50;96.30
23477;DHT22;11911;50.768;13.150;2022-10-22T07:30:21;12.50;96.30
23477;DHT22;11911;50.768;13.150;2022-10-22T07:32:47;12.50;96.30
23477;DHT22;11911;50.768;13.150;2022-10-22T07:35:12;12.50;96.30
23477;DHT22;11911;50.768;13.150;2022-10-22T07:37:38;12.50;96.30
23477;DHT22;11911;50.768;13.150;2022-10-22T07:44:56;12.50;96.30
23477;DHT22;11911;50.768;13.150;2022-10-22T07:47:21;12.50;96.30
23477;DHT22;11911;50.768;13.150;2022-10-22T07:49:47;12.50;96.30
23477;DHT22;11911;50.768;13.150;2022-10-22T07:54:38;12.50;96.30
23477;DHT22;11911;50.768;13.150;2022-10-22T07:59:29;12.50;96.30
23477;DHT22;11911;50.768;13.150;2022-10-22T08:06:47;12.40;96.30
23477;DHT22;11911;50.768;13.150;2022-10-22T08:09:12;12.40;96.30
23477;DHT22;11911;50.768;13.150;2022-10-22T08:11:38;12.40;96.30
23477;DHT22;11911;50.768;13.150;2022-10-22T08:14:03;12.40;96.30
23477;DHT22;11911;50.768;13.150;2022-10-22T08:16:29;12.30;96.30
23477;DHT22;11911;50.768;13.150;2022-10-22T08:18:54;12.30;96.30
23477;DHT22;11911;50.768;13.150;2022-10-22T08:21:20;12.30;96.30
23477;DHT22;11911;50.768;13.150;2022-10-22T08:23:46;12.30;96.30
23477;DHT22;11911;50.768;13.150;2022-10-22T08:28:37;12.30;96.30
23477;DHT22;11911;50.768;13.150;2022-10-22T08:31:06;12.30;96.30
23477;DHT22;11911;50.768;13.150;2022-10-22T08:33:32;12.40;96.30
23477;DHT22;11911;50.768;13.150;2022-10-22T08:35:58;12.40;96.30
23477;DHT22;11911;50.768;13.150;2022-10-22T08:40:56;12.60;96.30
23477;DHT22;11911;50.768;13.150;2022-10-22T08:48:53;12.70;96.30
23477;DHT22;11911;50.768;13.150;2022-10-22T08:51:22;12.80;96.30
23477;DHT22;11911;50.768;13.150;2022-10-22T08:56:24;12.90;96.30
23477;DHT22;11911;50.768;13.150;2022-10-22T08:59:01;13.00;96.30
23477;DHT22;11911;50.768;13.150;2022-10-22T09:01:36;13.20;96.30
23477;DHT22;11911;50.768;13.150;2022-10-22T09:04:48;13.60;96.30
23477;DHT22;11911;50.768;13.150;2022-10-22T09:06:57;13.80;96.30
23477;DHT22;11911;50.768;13.150;2022-10-22T09:09:28;14.00;96.30
23477;DHT22;11911;50.768;13.150;2022-10-22T09:11:57;14.10;96.30
23477;DHT22;11911;50.768;13.150;2022-10-22T09:14:24;14.20;96.30
23477;DHT22;11911;50.768;13.150;2022-10-22T09:20:08;15.10;96.30
23477;DHT22;11911;50.768;13.150;2022-10-22T09:22:39;15.40;96.30
23477;DHT22;11911;50.768;13.150;2022-10-22T09:25:25;15.50;96.30
23477;DHT22;11911;50.768;13.150;2022-10-22T09:30:24;15.30;96.30
23477;DHT22;11911;50.768;13.150;2022-10-22T09:33:13;15.60;96.30
23477;DHT22;11911;50.768;13.150;2022-10-22T09:35:47;16.20;96.30
23477;DHT22;11911;50.768;13.150;2022-10-22T09:38:15;16.60;96.30
23477;DHT22;11911;50.768;13.150;2022-10-22T09:40:53;16.60;96.30
23477;DHT22;11911;50.768;13.150;2022-10-22T09:43:19;16.40;96.30
23477;DHT22;11911;50.768;13.150;2022-10-22T09:45:45;16.20;96.30
23477;DHT22;11911;50.768;13.150;2022-10-22T09:50:44;15.60;96.30
23477;DHT22;11911;50.768;13.150;2022-10-22T09:55:44;15.30;96.30
23477;DHT22;11911;50.768;13.150;2022-10-22T09:58:13;15.00;96.30
23477;DHT22;11911;50.768;13.150;2022-10-22T10:00:42;15.10;96.30
23477;DHT22;11911;50.768;13.150;2022-10-22T10:03:18;15.30;96.30
23477;DHT22;11911;50.768;13.150;2022-10-22T10:05:53;15.30;96.30
23477;DHT22;11911;50.768;13.150;2022-10-22T10:08:19;15.30;96.30
23477;DHT22;11911;50.768;13.150;2022-10-22T10:16:51;15.40;96.30
23477;DHT22;11911;50.768;13.150;2022-10-22T10:24:47;16.00;96.30
23477;DHT22;11911;50.768;13.150;2022-10-22T10:27:25;16.50;96.30
23477;DHT22;11911;50.768;13.150;2022-10-22T10:30:21;16.60;96.30
23477;DHT22;11911;50.768;13.150;2022-10-22T10:35:45;16.60;96.30
23477;DHT22;11911;50.768;13.150;2022-10-22T10:47:10;18.50;96.30
23477;DHT22;11911;50.768;13.150;2022-10-22T10:49:37;18.10;96.30
23477;DHT22;11911;50.768;13.150;2022-10-22T10:52:17;17.50;96.30
23477;DHT22;11911;50.768;13.150;2022-10-22T10:57:45;16.80;96.30
23477;DHT22;11911;50.768;13.150;2022-10-22T11:00:21;16.80;96.30
23477;DHT22;11911;50.768;13.150;2022-10-22T11:05:44;16.60;96.30
23477;DHT22;11911;50.768;13.150;2022-10-22T11:08:20;16.40;96.30
23477;DHT22;11911;50.768;13.150;2022-10-22T11:11:34;16.10;96.30
23477;DHT22;11911;50.768;13.150;2022-10-22T11:14:10;16.00;96.30
23477;DHT22;11911;50.768;13.150;2022-10-22T11:16:43;15.90;96.30
23477;DHT22;11911;50.768;13.150;2022-10-22T11:19:24;16.00;96.30
23477;DHT22;11911;50.768;13.150;2022-10-22T11:21:59;16.50;96.30
23477;DHT22;11911;50.768;13.150;2022-10-22T11:27:06;16.00;96.30
23477;DHT22;11911;50.768;13.150;2022-10-22T11:29:42;15.80;96.30
23477;DHT22;11911;50.768;13.150;2022-10-22T11:32:15;15.70;96.30
23477;DHT22;11911;50.768;13.150;2022-10-22T11:35:15;15.70;96.30
23477;DHT22;11911;50.768;13.150;2022-10-22T11:37:34;16.50;96.30
23477;DHT22;11911;50.768;13.150;2022-10-22T11:43:31;17.40;96.30
23477;DHT22;11911;50.768;13.150;2022-10-22T11:49:02;17.60;96.30
23477;DHT22;11911;50.768;13.150;2022-10-22T11:51:37;17.90;96.30
23477;DHT22;11911;50.768;13.150;2022-10-22T11:54:27;18.10;96.30
23477;DHT22;11911;50.768;13.150;2022-10-22T11:59:51;18.30;96.30
23477;DHT22;11911;50.768;13.150;2022-10-22T12:02:39;18.30;96.30
23477;DHT22;11911;50.768;13.150;2022-10-22T12:07:55;18.20;96.30
23477;DHT22;11911;50.768;13.150;2022-10-22T12:10:25;18.00;96.30
23477;DHT22;11911;50.768;13.150;2022-10-22T12:12:56;18.20;96.30
23477;DHT22;11911;50.768;13.150;2022-10-22T12:15:25;18.30;96.30
23477;DHT22;11911;50.768;13.150;2022-10-22T12:17:59;18.60;96.30
23477;DHT22;11911;50.768;13.150;2022-10-22T12:20:25;18.50;96.30
23477;DHT22;11911;50.768;13.150;2022-10-22T12:22:52;17.90;96.30
23477;DHT22;11911;50.768;13.150;2022-10-22T12:25:22;17.50;96.30
23477;DHT22;11911;50.768;13.150;2022-10-22T12:27:53;17.20;96.30
23477;DHT22;11911;50.768;13.150;2022-10-22T12:30:39;17.10;96.30
23477;DHT22;11911;50.768;13.150;2022-10-22T12:33:07;17.00;96.30
23477;DHT22;11911;50.768;13.150;2022-10-22T12:35:44;16.90;96.30
23477;DHT22;11911;50.768;13.150;2022-10-22T12:43:11;16.50;96.30
23477;DHT22;11911;50.768;13.150;2022-10-22T12:45:36;16.30;96.30
23477;DHT22;11911;50.768;13.150;2022-10-22T12:48:05;16.40;96.30
23477;DHT22;11911;50.768;13.150;2022-10-22T12:50:42;16.80;96.30
23477;DHT22;11911;50.768;13.150;2022-10-22T12:53:18;17.50;96.30
23477;DHT22;11911;50.768;13.150;2022-10-22T12:55:50;18.10;96.30
23477;DHT22;11911;50.768;13.150;2022-10-22T12:58:19;18.40;96.30
23477;DHT22;11911;50.768;13.150;2022-10-22T13:00:46;18.30;96.30
23477;DHT22;11911;50.768;13.150;2022-10-22T13:03:49;18.20;96.30
23477;DHT22;11911;50.768;13.150;2022-10-22T13:08:44;17.40;96.30
23477;DHT22;11911;50.768;13.150;2022-10-22T13:11:10;17.50;96.30
23477;DHT22;11911;50.768;13.150;2022-10-22T13:16:22;17.90;96.30
23477;DHT22;11911;50.768;13.150;2022-10-22T13:18:49;18.10;96.30
23477;DHT22;11911;50.768;13.150;2022-10-22T13:21:33;18.10;96.30
23477;DHT22;11911;50.768;13.150;2022-10-22T13:24:01;17.80;96.30
23477;DHT22;11911;50.768;13.150;2022-10-22T13:26:33;18.00;96.30
23477;DHT22;11911;50.768;13.150;2022-10-22T13:31:30;18.80;96.30
23477;DHT22;11911;50.768;13.150;2022-10-22T13:34:00;18.80;96.30
23477;DHT22;11911;50.768;13.150;2022-10-22T13:36:27;18.30;96.30
23477;DHT22;11911;50.768;13.150;2022-10-22T13:38:53;18.50;96.30
23477;DHT22;11911;50.768;13.150;2022-10-22T13:43:45;18.90;96.30
23477;DHT22;11911;50.768;13.150;2022-10-22T13:46:11;18.70;96.30
23477;DHT22;11911;50.768;13.150;2022-10-22T13:48:37;18.90;96.30
23477;DHT22;11911;50.768;13.150;2022-10-22T13:51:03;19.10;96.30
23477;DHT22;11911;50.768;13.150;2022-10-22T13:53:29;19.10;96.30
23477;DHT22;11911;50.768;13.150;2022-10-22T13:58:22;19.00;96.30
23477;DHT22;11911;50.768;13.150;2022-10-22T14:00:53;18.90;96.30
23477;DHT22;11911;50.768;13.150;2022-10-22T14:03:31;18.90;96.30
23477;DHT22;11911;50.768;13.150;2022-10-22T14:08:24;18.20;96.30
23477;DHT22;11911;50.768;13.150;2022-10-22T14:10:50;17.60;96.30
23477;DHT22;11911;50.768;13.150;2022-10-22T14:13:17;17.30;96.30
23477;DHT22;11911;50.768;13.150;2022-10-22T14:15:44;17.00;96.30
23477;DHT22;11911;50.768;13.150;2022-10-22T14:20:39;17.00;96.30
23477;DHT22;11911;50.768;13.150;2022-10-22T14:23:18;17.10;96.30
23477;DHT22;11911;50.768;13.150;2022-10-22T14:25:45;17.10;96.30
23477;DHT22;11911;50.768;13.150;2022-10-22T14:28:11;17.30;96.30
23477;DHT22;11911;50.768;13.150;2022-10-22T14:30:37;17.40;96.30
23477;DHT22;11911;50.768;13.150;2022-10-22T14:40:30;16.80;96.30
23477;DHT22;11911;50.768;13.150;2022-10-22T14:42:55;16.80;96.30
23477;DHT22;11911;50.768;13.150;2022-10-22T14:47:50;16.90;96.30
23477;DHT22;11911;50.768;13.150;2022-10-22T14:50:17;16.80;96.30
23477;DHT22;11911;50.768;13.150;2022-10-22T14:52:43;16.50;96.30
23477;DHT22;11911;50.768;13.150;2022-10-22T14:55:10;16.30;96.30
23477;DHT22;11911;50.768;13.150;2022-10-22T14:57:35;16.20;96.30
23477;DHT22;11911;50.768;13.150;2022-10-22T15:00:13;15.90;96.30
23477;DHT22;11911;50.768;13.150;2022-10-22T15:05:05;15.60;96.30
23477;DHT22;11911;50.768;13.150;2022-10-22T15:12:23;15.10;96.30
23477;DHT22;11911;50.768;13.150;2022-10-22T15:14:48;15.10;96.30
23477;DHT22;11911;50.768;13.150;2022-10-22T15:17:15;14.90;96.30
23477;DHT22;11911;50.768;13.150;2022-10-22T15:19:41;14.80;96.30
23477;DHT22;11911;50.768;13.150;2022-10-22T15:26:59;14.50;96.30
23477;DHT22;11911;50.768;13.150;2022-10-22T15:29:28;14.40;96.30
23477;DHT22;11911;50.768;13.150;2022-10-22T15:31:55;14.40;96.30
23477;DHT22;11911;50.768;13.150;2022-10-22T15:34:30;14.40;96.30
23477;DHT22;11911;50.768;13.150;2022-10-22T15:36:58;14.30;96.30
23477;DHT22;11911;50.768;13.150;2022-10-22T15:41:51;14.10;96.30
23477;DHT22;11911;50.768;13.150;2022-10-22T15:49:11;13.90;96.30
23477;DHT22;11911;50.768;13.150;2022-10-22T15:51:37;13.90;96.30
23477;DHT22;11911;50.768;13.150;2022-10-22T15:54:03;13.80;96.30
23477;DHT22;11911;50.768;13.150;2022-10-22T15:56:29;13.80;96.30
23477;DHT22;11911;50.768;13.150;2022-10-22T15:59:00;13.80;96.30
23477;DHT22;11911;50.768;13.150;2022-10-22T16:01:30;13.80;96.30
23477;DHT22;11911;50.768;13.150;2022-10-22T16:03:56;13.70;96.30
23477;DHT22;11911;50.768;13.150;2022-10-22T16:06:27;13.50;96.30
23477;DHT22;11911;50.768;13.150;2022-10-22T16:18:37;13.20;96.30
23477;DHT22;11911;50.768;13.150;2022-10-22T16:21:03;13.10;96.30
23477;DHT22;11911;50.768;13.150;2022-10-22T16:23:28;13.10;96.30
23477;DHT22;11911;50.768;13.150;2022-10-22T16:33:12;12.70;96.30
23477;DHT22;11911;50.768;13.150;2022-10-22T16:35:41;12.60;96.30
23477;DHT22;11911;50.768;13.150;2022-10-22T16:38:07;12.60;96.30
23477;DHT22;11911;50.768;13.150;2022-10-22T16:43:00;12.50;96.30
23477;DHT22;11911;50.768;13.150;2022-10-22T16:45:25;12.40;96.30
23477;DHT22;11911;50.768;13.150;2022-10-22T16:47:51;12.30;96.30
23477;DHT22;11911;50.768;13.150;2022-10-22T16:55:08;12.40;96.30
23477;DHT22;11911;50.768;13.150;2022-10-22T16:57:34;12.40;96.30
23477;DHT22;11911;50.768;13.150;2022-10-22T17:00:00;12.40;96.30
23477;DHT22;11911;50.768;13.150;2022-10-22T17:02:26;12.40;96.30
23477;DHT22;11911;50.768;13.150;2022-10-22T17:04:51;12.40;96.30
23477;DHT22;11911;50.768;13.150;2022-10-22T17:07:17;12.30;96.30
23477;DHT22;11911;50.768;13.150;2022-10-22T17:09:42;12.30;96.30
23477;DHT22;11911;50.768;13.150;2022-10-22T17:12:08;12.40;96.30
23477;DHT22;11911;50.768;13.150;2022-10-22T17:16:59;12.30;96.30
23477;DHT22;11911;50.768;13.150;2022-10-22T17:19:25;12.30;96.30
23477;DHT22;11911;50.768;13.150;2022-10-22T17:21:51;12.20;96.30
23477;DHT22;11911;50.768;13.150;2022-10-22T17:29:10;12.20;96.30
23477;DHT22;11911;50.768;13.150;2022-10-22T17:31:37;12.30;96.30
23477;DHT22;11911;50.768;13.150;2022-10-22T17:36:31;12.30;96.30
23477;DHT22;11911;50.768;13.150;2022-10-22T17:38:58;12.30;96.30
23477;DHT22;11911;50.768;13.150;2022-10-22T17:41:27;12.30;96.30
23477;DHT22;11911;50.768;13.150;2022-10-22T17:46:24;12.10;96.30
23477;DHT22;11911;50.768;13.150;2022-10-22T17:48:55;12.10;96.30
23477;DHT22;11911;50.768;13.150;2022-10-22T17:51:22;12.10;96.30
23477;DHT22;11911;50.768;13.150;2022-10-22T17:53:48;12.10;96.30
23477;DHT22;11911;50.768;13.150;2022-10-22T17:56:19;12.20;96.30
23477;DHT22;11911;50.768;13.150;2022-10-22T18:01:27;12.30;96.30
23477;DHT22;11911;50.768;13.150;2022-10-22T18:03:57;12.30;96.30
23477;DHT22;11911;50.768;13.150;2022-10-22T18:06:23;12.50;96.30
23477;DHT22;11911;50.768;13.150;2022-10-22T18:08:48;12.50;96.30
23477;DHT22;11911;50.768;13.150;2022-10-22T18:11:19;12.50;96.30
23477;DHT22;11911;50.768;13.150;2022-10-22T18:13:53;12.40;96.30
23477;DHT22;11911;50.768;13.150;2022-10-22T18:16:19;12.40;96.30
23477;DHT22;11911;50.768;13.150;2022-10-22T18:21:13;12.30;96.30
23477;DHT22;11911;50.768;13.150;2022-10-22T18:23:39;12.30;96.30
23477;DHT22;11911;50.768;13.150;2022-10-22T18:26:04;12.20;96.30
23477;DHT22;11911;50.768;13.150;2022-10-22T18:28:30;12.20;96.30
23477;DHT22;11911;50.768;13.150;2022-10-22T18:33:22;12.30;96.30
23477;DHT22;11911;50.768;13.150;2022-10-22T18:35:49;12.40;96.30
23477;DHT22;11911;50.768;13.150;2022-10-22T18:38:17;12.40;96.30
23477;DHT22;11911;50.768;13.150;2022-10-22T18:45:43;12.60;96.30
23477;DHT22;11911;50.768;13.150;2022-10-22T18:48:09;12.60;96.30
23477;DHT22;11911;50.768;13.150;2022-10-22T18:50:35;12.60;96.30
23477;DHT22;11911;50.768;13.150;2022-10-22T18:53:00;12.60;96.30
23477;DHT22;11911;50.768;13.150;2022-10-22T18:55:26;12.70;96.30
23477;DHT22;11911;50.768;13.150;2022-10-22T18:57:51;12.70;96.30
23477;DHT22;11911;50.768;13.150;2022-10-22T19:00:17;12.80;96.30
23477;DHT22;11911;50.768;13.150;2022-10-22T19:02:42;12.80;96.30
23477;DHT22;11911;50.768;13.150;2022-10-22T19:05:08;12.80;96.30
23477;DHT22;11911;50.768;13.150;2022-10-22T19:10:01;12.80;96.30
23477;DHT22;11911;50.768;13.150;2022-10-22T19:12:26;12.80;96.30
23477;DHT22;11911;50.768;13.150;2022-10-22T19:14:52;12.70;96.30
23477;DHT22;11911;50.768;13.150;2022-10-22T19:17:17;12.80;96.30
23477;DHT22;11911;50.768;13.150;2022-10-22T19:19:44;12.90;96.30
23477;DHT22;11911;50.768;13.150;2022-10-22T19:22:09;12.80;96.30
23477;DHT22;11911;50.768;13.150;2022-10-22T19:24:35;12.90;96.30
23477;DHT22;11911;50.768;13.150;2022-10-22T19:27:00;12.80;96.30
23477;DHT22;11911;50.768;13.150;2022-10-22T19:31:52;12.90;96.30
23477;DHT22;11911;50.768;13.150;2022-10-22T19:34:18;12.90;96.30
23477;DHT22;11911;50.768;13.150;2022-10-22T19:36:44;12.90;96.30
23477;DHT22;11911;50.768;13.150;2022-10-22T19:39:10;13.00;96.30
23477;DHT22;11911;50.768;13.150;2022-10-22T19:41:38;13.00;96.30
23477;DHT22;11911;50.768;13.150;2022-10-22T19:46:30;12.90;96.30
23477;DHT22;11911;50.768;13.150;2022-10-22T19:51:26;12.80;96.30
23477;DHT22;11911;50.768;13.150;2022-10-22T19:53:57;12.80;96.30
23477;DHT22;11911;50.768;13.150;2022-10-22T19:56:23;12.90;96.30
23477;DHT22;11911;50.768;13.150;2022-10-22T19:58:49;13.00;96.30
23477;DHT22;11911;50.768;13.150;2022-10-22T20:01:16;13.00;96.30
23477;DHT22;11911;50.768;13.150;2022-10-22T20:03:42;12.90;96.30
23477;DHT22;11911;50.768;13.150;2022-10-22T20:06:09;12.90;96.30
23477;DHT22;11911;50.768;13.150;2022-10-22T20:08:36;12.80;96.30
23477;DHT22;11911;50.768;13.150;2022-10-22T20:11:24;12.80;96.30
23477;DHT22;11911;50.768;13.150;2022-10-22T20:13:49;12.80;96.30
23477;DHT22;11911;50.768;13.150;2022-10-22T20:16:15;12.80;96.30
23477;DHT22;11911;50.768;13.150;2022-10-22T20:18:41;12.80;96.30
23477;DHT22;11911;50.768;13.150;2022-10-22T20:21:12;12.80;96.30
23477;DHT22;11911;50.768;13.150;2022-10-22T20:23:38;12.80;96.30
23477;DHT22;11911;50.768;13.150;2022-10-22T20:26:04;12.70;96.30
23477;DHT22;11911;50.768;13.150;2022-10-22T20:28:30;12.70;96.30
23477;DHT22;11911;50.768;13.150;2022-10-22T20:30:55;12.60;96.30
23477;DHT22;11911;50.768;13.150;2022-10-22T20:33:22;12.50;96.30
23477;DHT22;11911;50.768;13.150;2022-10-22T20:36:01;12.40;96.30
23477;DHT22;11911;50.768;13.150;2022-10-22T20:38:26;12.30;96.30
23477;DHT22;11911;50.768;13.150;2022-10-22T20:41:20;12.20;96.30
23477;DHT22;11911;50.768;13.150;2022-10-22T20:43:47;12.00;96.30
23477;DHT22;11911;50.768;13.150;2022-10-22T20:46:23;12.00;96.30
23477;DHT22;11911;50.768;13.150;2022-10-22T20:48:53;12.00;96.30
23477;DHT22;11911;50.768;13.150;2022-10-22T20:51:20;11.90;96.30
23477;DHT22;11911;50.768;13.150;2022-10-22T20:53:46;11.90;96.30
23477;DHT22;11911;50.768;13.150;2022-10-22T20:56:12;11.90;96.30
23477;DHT22;11911;50.768;13.150;2022-10-22T20:58:38;11.80;96.30
23477;DHT22;11911;50.768;13.150;2022-10-22T21:01:04;11.80;96.30
23477;DHT22;11911;50.768;13.150;2022-10-22T21:03:38;11.70;96.30
23477;DHT22;11911;50.768;13.150;2022-10-22T21:06:04;11.80;96.30
23477;DHT22;11911;50.768;13.150;2022-10-22T21:08:29;11.80;96.30
23477;DHT22;11911;50.768;13.150;2022-10-22T21:10:55;11.80;96.30
23477;DHT22;11911;50.768;13.150;2022-10-22T21:13:21;11.80;96.30
23477;DHT22;11911;50.768;13.150;2022-10-22T21:15:46;11.80;96.30
23477;DHT22;11911;50.768;13.150;2022-10-22T21:18:12;11.80;96.30
23477;DHT22;11911;50.768;13.150;2022-10-22T21:20:38;11.70;96.30
23477;DHT22;11911;50.768;13.150;2022-10-22T21:23:03;11.60;96.30
23477;DHT22;11911;50.768;13.150;2022-10-22T21:25:29;11.70;96.30
23477;DHT22;11911;50.768;13.150;2022-10-22T21:27:55;11.70;96.30
23477;DHT22;11911;50.768;13.150;2022-10-22T21:30:20;11.80;96.30
23477;DHT22;11911;50.768;13.150;2022-10-22T21:32:46;11.80;96.30
23477;DHT22;11911;50.768;13.150;2022-10-22T21:35:11;11.70;96.30
23477;DHT22;11911;50.768;13.150;2022-10-22T21:40:03;11.60;96.30
23477;DHT22;11911;50.768;13.150;2022-10-22T21:44:55;11.50;96.30
23477;DHT22;11911;50.768;13.150;2022-10-22T21:47:20;11.40;96.30
23477;DHT22;11911;50.768;13.150;2022-10-22T21:49:46;11.40;96.30
23477;DHT22;11911;50.768;13.150;2022-10-22T21:54:37;11.20;96.30
23477;DHT22;11911;50.768;13.150;2022-10-22T21:57:04;11.10;96.30
23477;DHT22;11911;50.768;13.150;2022-10-22T21:59:29;11.00;96.30
23477;DHT22;11911;50.768;13.150;2022-10-22T22:01:57;10.90;96.30
23477;DHT22;11911;50.768;13.150;2022-10-22T22:04:23;10.90;96.30
23477;DHT22;11911;50.768;13.150;2022-10-22T22:06:49;10.90;96.30
23477;DHT22;11911;50.768;13.150;2022-10-22T22:09:15;11.00;96.30
23477;DHT22;11911;50.768;13.150;2022-10-22T22:11:41;11.00;96.30
23477;DHT22;11911;50.768;13.150;2022-10-22T22:16:33;11.10;96.30
23477;DHT22;11911;50.768;13.150;2022-10-22T22:19:01;11.10;96.30
23477;DHT22;11911;50.768;13.150;2022-10-22T22:26:29;11.10;96.30
23477;DHT22;11911;50.768;13.150;2022-10-22T22:28:55;11.00;96.30
23477;DHT22;11911;50.768;13.150;2022-10-22T22:31:23;11.10;96.30
23477;DHT22;11911;50.768;13.150;2022-10-22T22:33:49;11.20;96.30
23477;DHT22;11911;50.768;13.150;2022-10-22T22:36:15;11.10;96.30
23477;DHT22;11911;50.768;13.150;2022-10-22T22:38:41;11.10;96.30
23477;DHT22;11911;50.768;13.150;2022-10-22T22:41:07;11.20;96.30
23477;DHT22;11911;50.768;13.150;2022-10-22T22:43:34;11.20;96.30
23477;DHT22;11911;50.768;13.150;2022-10-22T22:48:30;11.10;96.30
23477;DHT22;11911;50.768;13.150;2022-10-22T22:50:56;11.10;96.30
23477;DHT22;11911;50.768;13.150;2022-10-22T22:53:24;11.10;96.30
23477;DHT22;11911;50.768;13.150;2022-10-22T22:55:49;11.00;96.30
23477;DHT22;11911;50.768;13.150;2022-10-22T22:58:15;11.10;96.30
23477;DHT22;11911;50.768;13.150;2022-10-22T23:00:41;11.10;96.30
23477;DHT22;11911;50.768;13.150;2022-10-22T23:03:06;11.10;96.30
23477;DHT22;11911;50.768;13.150;2022-10-22T23:05:35;11.00;96.30
23477;DHT22;11911;50.768;13.150;2022-10-22T23:08:01;11.00;96.30
23477;DHT22;11911;50.768;13.150;2022-10-22T23:10:26;10.90;96.30
23477;DHT22;11911;50.768;13.150;2022-10-22T23:12:52;11.00;96.30
23477;DHT22;11911;50.768;13.150;2022-10-22T23:15:17;11.00;96.30
23477;DHT22;11911;50.768;13.150;2022-10-22T23:17:43;11.10;96.30
23477;DHT22;11911;50.768;13.150;2022-10-22T23:20:08;11.30;96.30
23477;DHT22;11911;50.768;13.150;2022-10-22T23:22:34;11.40;96.30
23477;DHT22;11911;50.768;13.150;2022-10-22T23:24:59;11.50;96.30
23477;DHT22;11911;50.768;13.150;2022-10-22T23:27:25;11.50;96.30
23477;DHT22;11911;50.768;13.150;2022-10-22T23:29:50;11.60;96.30
23477;DHT22;11911;50.768;13.150;2022-10-22T23:32:16;11.60;96.30
23477;DHT22;11911;50.768;13.150;2022-10-22T23:34:41;11.70;96.30
23477;DHT22;11911;50.768;13.150;2022-10-22T23:37:10;11.80;96.30
23477;DHT22;11911;50.768;13.150;2022-10-22T23:39:36;11.90;96.30
23477;DHT22;11911;50.768;13.150;2022-10-22T23:42:01;11.90;96.30
23477;DHT22;11911;50.768;13.150;2022-10-22T23:51:45;12.00;96.30
23477;DHT22;11911;50.768;13.150;2022-10-22T23:54:13;11.90;96.30
23477;DHT22;11911;50.768;13.150;2022-10-22T23:56:39;11.90;96.30
